Latest Weather Observations for Lake Macquarie - Cooranbong

IDN60901

Issued at 11:01 am EST Monday 20 April 2015 (issued every 10 minutes, with the page automatically refreshed every 10 minutes)

About weather observations | Map of Sydney area stations | Latest observations for Sydney area | Other Formats
Station Details ID: 061412 Name: LAKE MACQUARIE AWS Lat: -33.09 Lon: 151.46 Height: 6.0 m
Data from the previous 72 hours. | See also: Recent months at Lake Macquarie - Cooranbong
Date/Time
EST
Tmp

°C
App
Tmp
°C
Dew
Point
°C
Rel
Hum
%
Delta-T

°C
Wind Press
QNH
hPa
Press
MSL
hPa
Rain
since
9 am
mm
Dir
 
Spd
km/h
Gust
km/h
Spd
kts
Gust
kts
20/11:00am 15.7 16.4 14.6 93 0.6 SW 4 7 2 4 1021.3 1021.3 1.6
20/10:30am 15.4 15.6 14.3 93 0.6 SW 6 13 3 7 1021.9 1021.9 1.4
20/10:00am 14.4 14.3 13.3 93 0.6 SSW 6 11 3 6 1022.5 1022.5 1.2
20/09:30am 14.0 13.1 12.7 92 0.7 SW 9 19 5 10 1022.7 1022.7 0.8
20/09:00am 13.7 12.7 12.4 92 0.7 SW 9 19 5 10 1023.0 1023.0 7.4
20/08:30am 13.2 12.5 11.9 92 0.7 SW 7 19 4 10 1023.2 1023.2 6.8
20/08:00am 13.0 12.2 11.6 91 0.7 WSW 7 15 4 8 1023.3 1023.3 5.4
20/07:30am 12.7 11.7 11.1 90 0.8 SW 7 22 4 12 1023.1 1023.1 4.4
20/07:00am 12.6 11.7 11.2 91 0.7 SW 7 15 4 8 1023.0 1023.0 4.4
20/06:30am 12.5 11.7 10.9 90 0.8 SSW 6 13 3 7 1022.8 1022.8 4.4
20/06:00am 12.6 11.6 11.0 90 0.8 SW 7 15 4 8 1023.0 1023.0 3.8
20/05:30am 12.8 11.9 11.2 90 0.8 SW 7 15 4 8 1023.0 1023.0 3.4
20/05:00am 13.0 12.7 11.4 90 0.8 SW 4 13 2 7 1023.1 1023.1 2.6
20/04:30am 13.0 12.7 11.4 90 0.8 SSW 4 7 2 4 1022.8 1022.8 2.6
20/04:00am 13.0 12.7 11.4 90 0.8 SSW 4 15 2 8 1023.0 1023.0 2.4
20/03:30am 12.9 12.0 11.3 90 0.8 SW 7 15 4 8 1022.7 1022.7 2.4
20/03:00am 13.1 12.4 11.5 90 0.8 SSW 6 15 3 8 1022.9 1022.9 1.8
20/02:30am 12.9 12.5 11.1 89 0.9 SW 4 13 2 7 1023.1 1023.1 1.8
20/02:00am 13.0 12.2 10.9 87 1.1 SSW 6 15 3 8 1023.5 1023.5 1.4
20/01:30am 13.3 12.2 10.7 84 1.4 SW 7 15 4 8 1023.8 1023.8 0.8
20/01:00am 13.6 12.6 10.2 80 1.8 SW 6 13 3 7 1023.8 1023.8 0.4
20/12:30am 13.6 12.4 10.2 80 1.8 WSW 7 15 4 8 1024.2 1024.2 0.4
20/12:00am 13.8 12.7 10.8 82 1.6 SW 7 19 4 10 1024.0 1024.0 0.4
 
Date/Time
EST
Tmp

°C
App
Tmp
°C
Dew
Point
°C
Rel
Hum
%
Delta-T

°C
Wind Press
QNH
hPa
Press
MSL
hPa
Rain
since
9 am
mm
Dir
 
Spd
km/h
Gust
km/h
Spd
kts
Gust
kts
19/11:00pm 14.4 13.7 11.4 82 1.6 SW 6 13 3 7 1024.3 1024.3 0.4
19/10:30pm 14.9 14.2 11.5 80 1.8 SSW 6 11 3 6 1024.5 1024.5 0.4
19/10:00pm 15.7 14.4 11.1 74 2.4 SSW 9 20 5 11 1024.5 1024.5 0.2
19/09:30pm 16.1 14.9 11.7 75 2.4 S 9 15 5 8 1024.1 1024.1 0.2
19/09:00pm 16.3 15.6 11.9 75 2.4 SSW 7 22 4 12 1023.8 1023.8 0.2
19/08:30pm 16.8 16.4 12.3 75 2.5 SSW 6 17 3 9 1023.7 1023.7 0.2
19/08:00pm 17.0 15.4 12.9 77 2.3 S 13 24 7 13 1023.2 1023.2 0.2
19/07:30pm 17.1 16.8 13.2 78 2.2 S 7 19 4 10 1022.8 1022.8 0.0
19/07:00pm 17.5 16.7 12.8 74 2.6 S 9 22 5 12 1022.6 1022.6 0.0
19/06:30pm 17.7 17.4 13.2 75 2.5 SSE 7 24 4 13 1021.6 1021.6 0.0
19/06:00pm 18.0 17.4 13.5 75 2.5 S 9 19 5 10 1021.5 1021.5 0.0
19/05:30pm 18.1 18.4 13.4 74 2.7 S 4 13 2 7 1021.0 1021.0 0.0
19/05:00pm 18.4 17.9 13.7 74 2.7 S 9 20 5 11 1020.7 1020.7 0.0
19/04:30pm 18.6 18.1 13.9 74 2.7 S 9 15 5 8 1020.2 1020.2 0.0
19/04:00pm 19.9 19.3 14.5 71 3.1 S 11 24 6 13 1019.5 1019.5 0.0
19/03:30pm 19.6 19.1 14.8 74 2.8 SSE 11 24 6 13 1019.2 1019.2 0.0
19/03:00pm 19.7 19.1 14.5 72 3.0 SSE 11 22 6 12 1018.9 1018.9 0.0
19/02:30pm 21.1 21.5 15.2 69 3.5 SSE 7 15 4 8 1018.6 1018.6 0.0
19/02:00pm 22.5 22.5 13.6 57 5.1 ESE 6 13 3 7 1018.3 1018.3 0.0
19/01:30pm 22.0 22.2 12.0 53 5.6 SSW 2 7 1 4 1018.2 1018.2 0.0
19/01:00pm 21.6 21.2 11.0 51 5.8 WSW 4 6 2 3 1018.4 1018.4 0.0
19/12:30pm 21.1 20.0 10.0 49 6.0 SW 6 11 3 6 1018.5 1018.5 0.0
19/12:00pm 21.2 19.6 8.8 45 6.5 WSW 7 13 4 7 1018.8 1018.8 0.0
19/11:30am 21.4 20.4 10.3 49 6.0 WSW 6 9 3 5 1018.8 1018.8 0.0
19/11:00am 21.7 20.5 11.7 53 5.6 WSW 9 20 5 11 1018.8 1018.8 0.0
19/10:30am 21.7 21.3 14.1 62 4.4 SW 9 24 5 13 1018.8 1018.8 0.0
19/10:00am 22.5 22.6 15.4 64 4.2 WSW 9 17 5 9 1018.5 1018.5 0.0
19/09:30am 22.7 23.1 15.3 63 4.4 WSW 7 15 4 8 1018.3 1018.3 0.0
19/09:00am 21.8 24.0 17.4 76 2.7 WNW 2 4 1 2 1018.2 1018.2 1.4
19/08:30am 19.9 21.4 16.7 82 1.9 NNW 4 9 2 5 1017.9 1017.9 1.4
19/08:00am 18.9 21.2 17.7 93 0.7 NNE 2 4 1 2 1017.4 1017.4 1.4
19/07:30am 18.1 20.6 17.3 95 0.5 CALM 0 0 0 0 1017.0 1017.0 1.4
19/07:00am 17.4 19.6 16.4 94 0.6 CALM 0 6 0 3 1016.6 1016.6 1.4
19/06:30am 17.5 19.7 16.5 94 0.6 CALM 0 0 0 0 1016.2 1016.2 1.4
19/06:00am 17.6 19.1 16.6 94 0.6 N 4 6 2 3 1015.6 1015.6 1.4
19/05:30am 17.6 19.5 16.6 94 0.6 NNW 2 4 1 2 1015.5 1015.5 1.4
19/05:00am 17.8 20.1 16.7 93 0.7 CALM 0 2 0 1 1015.0 1015.0 1.4
19/04:30am 17.9 20.2 16.8 93 0.7 CALM 0 2 0 1 1014.8 1014.8 1.4
19/04:00am 17.9 19.8 16.8 93 0.7 E 2 4 1 2 1014.9 1014.9 1.4
19/03:30am 18.0 20.0 16.9 93 0.7 NNE 2 6 1 3 1015.0 1015.0 1.0
19/03:00am 18.3 20.1 16.5 89 1.1 NW 2 4 1 2 1014.8 1014.8 0.8
19/02:30am 18.6 19.3 16.2 86 1.4 N 7 13 4 7 1014.9 1014.9 0.4
19/02:00am 19.5 19.8 16.0 80 2.1 NNW 9 15 5 8 1015.1 1015.1 0.0
19/01:30am 18.8 20.8 16.0 84 1.7 CALM 0 0 0 0 1015.0 1015.0 0.0
19/01:00am 20.0 21.4 15.4 75 2.7 WNW 2 6 1 3 1015.1 1015.1 0.0
19/12:30am 20.9 21.2 15.0 69 3.5 NNW 7 15 4 8 1015.9 1015.9 0.0
19/12:00am 21.6 21.8 14.7 65 4.1 NW 7 15 4 8 1015.9 1015.9 0.0
 
Date/Time
EST
Tmp

°C
App
Tmp
°C
Dew
Point
°C
Rel
Hum
%
Delta-T

°C
Wind Press
QNH
hPa
Press
MSL
hPa
Rain
since
9 am
mm
Dir
 
Spd
km/h
Gust
km/h
Spd
kts
Gust
kts
18/11:30pm 22.8 21.4 14.4 59 4.9 WNW 15 32 8 17 1015.9 1015.9 0.0
18/11:00pm 22.1 22.4 15.9 68 3.7 WNW 9 17 5 9 1015.4 1015.4 0.0
18/10:30pm 18.9 21.5 17.4 91 0.9 CALM 0 0 0 0 1015.1 1015.1 0.0
18/10:00pm 18.9 21.4 17.2 90 1.0 CALM 0 0 0 0 1015.3 1015.3 0.0
18/09:30pm 19.1 21.4 17.6 91 0.9 N 2 4 1 2 1015.2 1015.2 0.0
18/09:00pm 19.2 21.7 17.3 89 1.2 CALM 0 0 0 0 1015.3 1015.3 0.0
18/08:30pm 19.4 22.0 17.4 88 1.2 CALM 0 0 0 0 1014.9 1014.9 0.0
18/08:00pm 19.6 22.2 17.4 87 1.3 CALM 0 0 0 0 1014.7 1014.7 0.0
18/07:30pm 20.2 22.8 17.6 85 1.6 CALM 0 0 0 0 1014.6 1014.6 0.0
18/07:00pm 20.3 22.5 17.5 84 1.7 N 2 2 1 1 1014.4 1014.4 0.0
18/06:30pm 21.4 24.0 17.4 78 2.5 CALM 0 0 0 0 1014.4 1014.4 0.0
18/06:00pm 21.7 23.9 17.5 77 2.6 N 2 6 1 3 1014.4 1014.4 0.0
18/05:30pm 22.6 24.4 17.3 72 3.3 N 4 6 2 3 1014.3 1014.3 0.0
18/05:00pm 23.3 25.1 17.3 69 3.7 NE 4 7 2 4 1014.2 1014.2 0.0
18/04:30pm 23.7 25.7 17.9 70 3.6 NE 4 7 2 4 1014.4 1014.4 0.0
18/04:00pm 24.2 25.9 17.2 65 4.3 NE 4 6 2 3 1014.6 1014.6 0.0
18/03:30pm 25.0 25.8 16.4 59 5.3 NNE 7 9 4 5 1014.8 1014.8 0.0
18/03:00pm 24.9 26.2 16.1 58 5.4 NNE 4 7 2 4 1015.0 1015.0 0.0
18/02:30pm 25.5 25.6 15.5 54 6.1 NNE 9 15 5 8 1015.3 1015.3 0.0
18/02:00pm 26.4 25.9 14.8 49 7.0 N 11 19 6 10 1015.4 1015.4 0.0
18/01:30pm 26.5 26.7 15.8 51 6.5 NNW 9 15 5 8 1015.4 1015.4 0.0
18/01:00pm 26.0 26.1 15.4 52 6.4 NNE 9 19 5 10 1015.8 1015.8 0.0
18/12:30pm 25.4 26.4 16.3 57 5.6 NNE 6 9 3 5 1016.3 1016.3 0.0
18/12:00pm 24.7 25.3 15.3 56 5.6 NNE 6 9 3 5 1016.8 1016.8 0.0
18/11:30am 24.5 24.4 14.9 55 5.7 N 9 19 5 10 1017.5 1017.5 0.0
18/11:00am 24.3 24.2 15.0 56 5.6 NNW 9 15 5 8 1017.9 1017.9 0.0
18/10:30am 24.1 24.1 15.1 57 5.4 N 9 15 5 8 1018.3 1018.3 0.0
18/10:00am 23.9 24.6 15.7 60 4.9 NNW 6 17 3 9 1018.7 1018.7 0.0
18/09:30am 23.5 23.9 15.3 60 4.9 N 7 11 4 6 1019.0 1019.0 0.0
18/09:00am 23.7 24.8 16.5 64 4.4 N 6 11 3 6 1019.3 1019.3 0.0
18/08:30am 22.6 23.2 15.7 65 4.1 NNW 7 11 4 6 1019.2 1019.2 0.0
18/08:00am 22.0 23.1 16.7 72 3.2 NNW 6 11 3 6 1019.1 1019.1 0.0
18/07:30am 18.4 20.4 17.8 96 0.4 NW 4 6 2 3 1018.9 1018.9 0.0
18/07:00am 17.4 19.0 16.9 97 0.3 N 4 13 2 7 1018.6 1018.6 0.0
18/06:30am 16.2 18.0 15.6 96 0.3 CALM 0 4 0 2 1018.4 1018.4 0.0
18/06:00am 16.5 18.5 15.9 96 0.4 CALM 0 0 0 0 1018.3 1018.3 0.0
18/05:30am 17.0 19.2 16.4 96 0.4 CALM 0 0 0 0 1018.2 1018.2 0.0
18/05:00am 17.7 20.2 17.2 97 0.3 CALM 0 0 0 0 1018.1 1018.1 0.0
18/04:30am 17.8 20.3 17.2 96 0.4 CALM 0 0 0 0 1018.0 1018.0 0.0
18/04:00am 17.8 20.3 17.2 96 0.4 CALM 0 2 0 1 1018.0 1018.0 0.0
18/03:30am 18.1 20.7 17.5 96 0.4 CALM 0 0 0 0 1018.0 1018.0 0.0
18/03:00am 18.0 20.6 17.4 96 0.4 CALM 0 0 0 0 1018.1 1018.1 0.0
18/02:30am 18.3 21.0 17.7 96 0.4 CALM 0 0 0 0 1018.3 1018.3 0.0
18/02:00am 18.2 20.8 17.4 95 0.5 CALM 0 0 0 0 1018.8 1018.8 0.0
18/01:30am 18.2 20.7 17.2 94 0.6 CALM 0 0 0 0 1019.1 1019.1 0.0
18/01:00am 18.4 21.0 17.4 94 0.6 CALM 0 0 0 0 1019.5 1019.5 0.0
18/12:30am 19.2 22.1 18.2 94 0.6 CALM 0 0 0 0 1019.7 1019.7 0.0
18/12:00am 19.4 22.3 18.2 93 0.7 CALM 0 0 0 0 1020.2 1020.2 0.0
 
Date/Time
EST
Tmp

°C
App
Tmp
°C
Dew
Point
°C
Rel
Hum
%
Delta-T

°C
Wind Press
QNH
hPa
Press
MSL
hPa
Rain
since
9 am
mm
Dir
 
Spd
km/h
Gust
km/h
Spd
kts
Gust
kts
17/11:30pm 19.9 23.0 18.7 93 0.7 CALM 0 0 0 0 1020.5 1020.5 0.0
17/11:00pm 20.0 23.2 18.8 93 0.7 CALM 0 0 0 0 1020.8 1020.8 0.0
17/10:30pm 20.1 23.3 18.9 93 0.8 CALM 0 0 0 0 1020.9 1020.9 0.0
17/10:00pm 20.0 23.2 18.8 93 0.7 CALM 0 0 0 0 1021.1 1021.1 0.0
17/09:30pm 19.7 22.7 18.5 93 0.7 CALM 0 0 0 0 1021.3 1021.3 0.0
17/09:00pm 19.7 22.7 18.4 92 0.8 CALM 0 0 0 0 1021.4 1021.4 0.0
17/08:30pm 20.3 23.5 18.8 91 0.9 CALM 0 0 0 0 1021.5 1021.5 0.0
17/08:00pm 20.4 23.5 18.7 90 1.1 CALM 0 0 0 0 1021.6 1021.6 0.0
17/07:30pm 20.9 24.0 18.7 87 1.4 CALM 0 0 0 0 1021.5 1021.5 0.0
17/07:00pm 21.4 24.7 19.1 87 1.4 CALM 0 0 0 0 1021.6 1021.6 0.0
17/06:30pm 21.5 24.8 19.1 86 1.5 CALM 0 0 0 0 1021.6 1021.6 0.0
17/06:00pm 21.7 25.0 19.1 85 1.6 CALM 0 0 0 0 1021.3 1021.3 0.0
17/05:30pm 21.9 25.2 19.1 84 1.8 CALM 0 2 0 1 1020.9 1020.9 0.0
17/05:00pm 22.1 24.5 18.9 82 2.0 SE 4 7 2 4 1020.9 1020.9 0.0
17/04:30pm 22.5 24.9 18.9 80 2.3 SE 4 7 2 4 1020.9 1020.9 0.0
17/04:00pm 23.0 25.6 19.2 79 2.4 E 4 7 2 4 1020.9 1020.9 0.0
17/03:30pm 22.9 24.7 18.4 76 2.8 ESE 6 9 3 5 1021.0 1021.0 0.0
17/03:00pm 22.9 24.7 18.4 76 2.8 ESE 6 9 3 5 1021.1 1021.1 0.0
17/02:30pm 23.3 25.1 18.8 76 2.8 ESE 7 9 4 5 1021.2 1021.2 0.0
17/02:00pm 23.4 25.2 18.3 73 3.2 ESE 6 11 3 6 1021.4 1021.4 0.0
17/01:30pm 23.9 25.6 18.5 72 3.4 E 7 9 4 5 1021.6 1021.6 0.0
17/01:00pm 23.6 24.9 18.5 73 3.2 ESE 9 15 5 8 1022.1 1022.1 0.0
17/12:30pm 23.2 25.2 18.7 76 2.8 S 6 9 3 5 1022.7 1022.7 0.0
17/12:00pm 23.1 25.8 18.6 76 2.8 SW 2 6 1 3 1023.5 1023.5 0.0
17/11:30am 23.1 25.5 18.0 73 3.2 SSE 2 4 1 2 1023.8 1023.8 0.0

Latest Capital City Observations: Canberra | Sydney | Melbourne | Brisbane | Adelaide | Perth | Hobart | Darwin

Other Formats:

Comma delimited format used in spreadsheet applications
http://www.bom.gov.au/fwo/IDN60901/IDN60901.95767.axf

JavaScript Object Notation format (JSON) in row-major order
http://www.bom.gov.au/fwo/IDN60901/IDN60901.95767.json